Time;durP1;ratioP1;P1;durP2;ratioP2;P2;SDS_P1;SDS_P2;PMS_P1;PMS_P2;Temp;Humidity;BMP_temperature;BMP_pressure;BME280_temperature;BME280_humidity;BME280_pressure;Samples;Min_cycle;Max_cycle;Signal;HPM_P1;HPM_P2
2022/11/10 00:00:27;;;;;;;0.00;0.00;;;10.10;99.90;;;;;;5077142;28;20051;-77
2022/11/10 00:02:53;;;;;;;0.75;0.75;;;10.00;99.90;;;;;;5093909;28;20051;-77
2022/11/10 00:05:19;;;;;;;0.00;0.00;;;10.00;99.90;;;;;;5093905;28;20044;-77
2022/11/10 00:07:45;;;;;;;1.90;0.15;;;10.00;99.90;;;;;;5077043;28;20055;-77
2022/11/10 00:10:12;;;;;;;0.17;0.10;;;10.00;99.90;;;;;;5093946;28;20471;-77
2022/11/10 00:12:38;;;;;;;0.00;0.00;;;10.00;99.90;;;;;;5093510;28;20135;-77
2022/11/10 00:17:48;;;;;;;0.00;0.00;;;10.00;99.90;;;;;;5093885;28;20063;-77
2022/11/10 00:20:13;;;;;;;2.95;0.55;;;9.90;99.90;;;;;;5077044;28;20056;-77
2022/11/10 00:22:40;;;;;;;0.38;0.38;;;9.90;99.90;;;;;;5093582;28;20044;-76
2022/11/10 00:25:06;;;;;;;0.00;0.00;;;9.90;99.90;;;;;;5093579;28;20043;-77
2022/11/10 00:27:33;;;;;;;0.35;0.10;;;9.80;99.90;;;;;;5093145;28;20066;-77
2022/11/10 00:29:59;;;;;;;2.85;0.13;;;9.90;99.90;;;;;;5093225;28;20051;-77
2022/11/10 00:32:25;;;;;;;0.10;0.10;;;9.80;99.90;;;;;;5093626;28;20044;-77
2022/11/10 00:34:50;;;;;;;0.05;0.00;;;9.80;99.90;;;;;;5076697;28;20440;-76
2022/11/10 00:37:16;;;;;;;0.00;0.00;;;9.70;99.90;;;;;;5093439;28;20408;-77
2022/11/10 00:39:42;;;;;;;0.20;0.13;;;9.70;99.90;;;;;;5092902;28;20097;-77
2022/11/10 00:42:08;;;;;;;0.47;0.10;;;9.70;99.90;;;;;;5093960;28;20059;-76
2022/11/10 00:44:34;;;;;;;0.00;0.00;;;9.70;99.90;;;;;;5093417;28;20048;-76
2022/11/10 00:46:59;;;;;;;0.00;0.00;;;9.70;99.90;;;;;;5076193;28;20044;-76
2022/11/10 00:49:26;;;;;;;0.00;0.00;;;9.70;99.90;;;;;;5093033;28;20095;-76
2022/11/10 00:51:52;;;;;;;0.05;0.05;;;9.60;99.90;;;;;;5075762;28;20048;-76
2022/11/10 00:54:18;;;;;;;0.10;0.10;;;9.60;99.90;;;;;;5076145;28;20040;-77
2022/11/10 00:56:44;;;;;;;0.00;0.00;;;9.60;99.90;;;;;;5092964;28;20054;-76
2022/11/10 00:59:09;;;;;;;0.00;0.00;;;9.60;99.90;;;;;;5076239;28;20131;-77
2022/11/10 01:01:35;;;;;;;0.00;0.00;;;9.60;99.90;;;;;;5075728;28;20063;-76
2022/11/10 01:04:01;;;;;;;0.00;0.00;;;9.50;99.90;;;;;;5076375;28;20442;-76
2022/11/10 01:06:26;;;;;;;0.80;0.80;;;9.60;99.90;;;;;;5092936;28;20044;-76
2022/11/10 01:08:52;;;;;;;0.00;0.00;;;9.60;99.90;;;;;;5076136;28;20052;-76
2022/11/10 01:11:20;;;;;;;0.05;0.05;;;9.50;99.90;;;;;;5092813;28;20082;-76
2022/11/10 01:13:48;;;;;;;0.52;0.38;;;9.50;99.90;;;;;;5075968;28;20048;-76
2022/11/10 01:16:18;;;;;;;0.00;0.00;;;9.50;99.90;;;;;;5093180;28;20125;-76
2022/11/10 01:18:47;;;;;;;0.00;0.00;;;9.50;99.90;;;;;;5092385;28;20040;-76
2022/11/10 01:21:13;;;;;;;0.00;0.00;;;9.50;99.90;;;;;;5075952;28;20048;-76
2022/11/10 01:23:38;;;;;;;1.13;0.40;;;9.50;99.90;;;;;;5092366;28;20549;-76
2022/11/10 01:26:05;;;;;;;0.00;0.00;;;9.50;99.90;;;;;;5076045;28;20052;-76
2022/11/10 01:28:32;;;;;;;0.00;0.00;;;9.50;99.90;;;;;;5092538;28;20059;-76
2022/11/10 01:31:09;;;;;;;0.00;0.00;;;9.40;99.90;;;;;;5092690;28;20421;-76
2022/11/10 01:33:35;;;;;;;0.00;0.00;;;9.40;99.90;;;;;;5092625;28;20055;-76
2022/11/10 01:36:02;;;;;;;0.03;0.00;;;9.40;99.90;;;;;;5092198;28;20514;-76
2022/11/10 01:38:30;;;;;;;0.10;0.10;;;9.40;99.90;;;;;;5092398;28;20395;-76
2022/11/10 01:40:56;;;;;;;0.20;0.20;;;9.40;99.90;;;;;;5092404;28;20506;-76
2022/11/10 01:43:22;;;;;;;1.08;0.98;;;9.40;99.90;;;;;;5092340;28;20044;-77
2022/11/10 01:45:59;;;;;;;0.00;0.00;;;9.40;99.90;;;;;;5075931;28;20064;-76
2022/11/10 01:48:40;;;;;;;0.70;0.52;;;9.40;99.90;;;;;;5092446;28;20488;-76
2022/11/10 01:51:33;;;;;;;0.00;0.00;;;9.40;99.90;;;;;;5075733;28;20052;-76
2022/11/10 01:54:03;;;;;;;0.00;0.00;;;9.40;99.90;;;;;;5075906;28;20048;-76
2022/11/10 01:56:34;;;;;;;0.10;0.10;;;9.40;99.90;;;;;;5092435;28;20044;-76
2022/11/10 01:59:03;;;;;;;0.00;0.00;;;9.40;99.90;;;;;;5076058;28;20091;-77
2022/11/10 02:01:29;;;;;;;0.22;0.20;;;9.30;99.90;;;;;;5075521;28;20044;-77
2022/11/10 02:04:02;;;;;;;0.00;0.00;;;9.30;99.90;;;;;;5076609;28;20524;-76
2022/11/10 02:06:32;;;;;;;0.00;0.00;;;9.30;99.90;;;;;;5079205;28;20455;-76
2022/11/10 02:09:00;;;;;;;0.00;0.00;;;9.30;99.90;;;;;;5096277;28;20044;-77
2022/11/10 02:11:27;;;;;;;0.47;0.47;;;9.40;99.90;;;;;;5096090;28;20474;-77
2022/11/10 02:13:53;;;;;;;0.20;0.17;;;9.30;99.90;;;;;;5079817;28;20441;-77
2022/11/10 02:16:19;;;;;;;0.17;0.00;;;9.30;99.90;;;;;;5096412;28;20494;-76
2022/11/10 02:18:45;;;;;;;0.00;0.00;;;9.30;99.90;;;;;;5096378;28;20142;-77
2022/11/10 02:21:14;;;;;;;0.00;0.00;;;9.30;99.90;;;;;;5096050;28;20371;-77
2022/11/10 02:23:43;;;;;;;0.00;0.00;;;9.30;99.90;;;;;;5079177;28;20427;-76
2022/11/10 02:26:09;;;;;;;0.05;0.05;;;9.30;99.90;;;;;;5095906;28;20135;-77
2022/11/10 02:28:36;;;;;;;1.10;1.00;;;9.30;99.90;;;;;;5095936;28;20136;-76
2022/11/10 02:31:03;;;;;;;0.10;0.00;;;9.30;99.90;;;;;;5095896;28;20044;-76
2022/11/10 02:33:29;;;;;;;0.00;0.00;;;9.30;99.90;;;;;;5096124;28;20044;-77
2022/11/10 02:35:55;;;;;;;0.43;0.30;;;9.30;99.90;;;;;;5095738;28;20051;-76
2022/11/10 02:38:20;;;;;;;0.00;0.00;;;9.30;99.90;;;;;;5095651;28;20040;-78
2022/11/10 02:40:48;;;;;;;0.15;0.15;;;9.30;99.90;;;;;;5095643;28;20044;-77
2022/11/10 02:43:15;;;;;;;0.10;0.10;;;9.40;99.90;;;;;;5095569;28;20040;-77
2022/11/10 02:45:44;;;;;;;0.00;0.00;;;9.40;99.90;;;;;;5078736;28;20160;-77
2022/11/10 02:48:11;;;;;;;1.58;0.55;;;9.30;99.90;;;;;;5078653;28;20102;-77
2022/11/10 02:50:37;;;;;;;0.75;0.20;;;9.40;99.90;;;;;;5095380;28;20059;-77
2022/11/10 02:53:03;;;;;;;0.10;0.10;;;9.40;99.90;;;;;;5078536;28;20044;-77
2022/11/10 02:55:29;;;;;;;0.82;0.50;;;9.40;99.90;;;;;;5078586;28;20083;-77
2022/11/10 02:57:54;;;;;;;0.00;0.00;;;9.40;99.90;;;;;;5095867;28;20052;-76
2022/11/10 03:00:21;;;;;;;1.85;0.20;;;9.40;99.90;;;;;;5095462;28;20396;-77
2022/11/10 03:02:47;;;;;;;0.43;0.20;;;9.50;99.90;;;;;;5095375;28;20044;-77
2022/11/10 03:05:12;;;;;;;1.75;0.73;;;9.40;99.90;;;;;;5078467;28;20491;-76
2022/11/10 03:07:38;;;;;;;4.80;0.47;;;9.50;99.90;;;;;;5078266;28;20101;-77
2022/11/10 03:10:05;;;;;;;0.00;0.00;;;9.50;99.90;;;;;;5094855;28;20055;-77
2022/11/10 03:12:31;;;;;;;0.28;0.08;;;9.40;99.90;;;;;;5078097;28;20048;-76
2022/11/10 03:14:56;;;;;;;0.10;0.00;;;9.50;99.90;;;;;;5095368;28;20048;-76
2022/11/10 03:17:22;;;;;;;1.58;0.55;;;9.40;99.90;;;;;;5094909;28;20039;-76
2022/11/10 03:19:49;;;;;;;0.00;0.00;;;9.50;99.90;;;;;;5077985;28;20080;-76
2022/11/10 03:22:14;;;;;;;2.83;0.55;;;9.40;99.90;;;;;;5094501;28;20044;-77
2022/11/10 03:24:40;;;;;;;0.22;0.22;;;9.50;99.90;;;;;;5094848;28;20051;-76
2022/11/10 03:27:06;;;;;;;4.22;1.08;;;9.50;99.90;;;;;;5078180;28;20060;-77
2022/11/10 03:29:31;;;;;;;0.00;0.00;;;9.50;99.90;;;;;;5094743;28;20518;-77
2022/11/10 03:31:57;;;;;;;0.28;0.10;;;9.50;99.90;;;;;;5094838;28;20395;-76
2022/11/10 03:34:23;;;;;;;0.55;0.45;;;9.50;99.90;;;;;;5094681;28;20172;-77
2022/11/10 03:36:49;;;;;;;1.45;0.85;;;9.50;99.90;;;;;;5094575;28;20040;-77
2022/11/10 03:39:14;;;;;;;0.10;0.00;;;9.40;99.90;;;;;;5094625;28;20040;-76
2022/11/10 03:41:40;;;;;;;2.45;0.73;;;9.50;99.90;;;;;;5094707;28;20044;-76
2022/11/10 03:44:06;;;;;;;0.40;0.40;;;9.40;99.90;;;;;;5077849;28;20059;-76
2022/11/10 03:46:31;;;;;;;0.10;0.10;;;9.40;99.90;;;;;;5077674;28;20044;-76
2022/11/10 03:48:57;;;;;;;0.10;0.08;;;9.40;99.90;;;;;;5078162;28;20040;-76
2022/11/10 03:51:23;;;;;;;0.00;0.00;;;9.40;99.90;;;;;;5077430;28;20499;-77
2022/11/10 03:53:48;;;;;;;0.00;0.00;;;9.50;99.90;;;;;;5094051;28;20047;-77
2022/11/10 03:56:14;;;;;;;0.17;0.10;;;9.40;99.90;;;;;;5077364;28;20092;-76
2022/11/10 03:58:40;;;;;;;4.68;0.57;;;9.40;99.90;;;;;;5094299;28;20047;-76
2022/11/10 04:01:06;;;;;;;0.00;0.00;;;9.40;99.90;;;;;;5093913;28;20058;-76
2022/11/10 04:03:32;;;;;;;0.00;0.00;;;9.30;99.90;;;;;;5077462;28;20414;-76
2022/11/10 04:09:00;;;;;;;1.35;0.35;;;9.40;99.90;;;;;;5094133;28;20040;-76
2022/11/10 04:16:56;;;;;;;0.03;0.03;;;9.40;99.90;;;;;;5093726;28;20052;-76
2022/11/10 04:19:22;;;;;;;0.00;0.00;;;9.30;99.90;;;;;;5093861;28;20130;-76
2022/11/10 04:21:48;;;;;;;0.65;0.65;;;9.30;99.90;;;;;;5093634;28;20139;-76
2022/11/10 04:24:14;;;;;;;0.00;0.00;;;9.40;99.90;;;;;;5093639;28;20048;-76
2022/11/10 04:26:41;;;;;;;0.00;0.00;;;9.40;99.90;;;;;;5076383;28;20102;-76
2022/11/10 04:29:09;;;;;;;0.50;0.35;;;9.40;99.90;;;;;;5093860;28;20512;-76
2022/11/10 04:31:37;;;;;;;0.00;0.00;;;9.40;99.90;;;;;;5093556;28;20044;-76
2022/11/10 04:34:09;;;;;;;1.13;0.43;;;9.40;99.90;;;;;;5076771;28;20055;-75
2022/11/10 04:36:36;;;;;;;0.00;0.00;;;9.40;99.90;;;;;;5076625;28;20055;-75
2022/11/10 04:39:03;;;;;;;0.15;0.10;;;9.40;99.90;;;;;;5093332;28;20070;-76
2022/11/10 04:41:30;;;;;;;0.00;0.00;;;9.40;99.90;;;;;;5093338;28;20044;-76
2022/11/10 04:43:56;;;;;;;0.10;0.10;;;9.40;99.90;;;;;;5093339;28;20048;-76
2022/11/10 04:46:31;;;;;;;0.13;0.10;;;9.30;99.90;;;;;;5093362;28;20040;-76
2022/11/10 04:48:57;;;;;;;0.10;0.10;;;9.40;99.90;;;;;;5093253;28;20040;-76
2022/11/10 04:51:35;;;;;;;0.10;0.10;;;9.40;99.90;;;;;;5092937;28;20369;-76
2022/11/10 04:54:00;;;;;;;0.00;0.00;;;9.40;99.90;;;;;;5076328;28;20054;-77
2022/11/10 04:56:26;;;;;;;1.35;0.20;;;9.50;99.90;;;;;;5076545;28;20138;-76
2022/11/10 04:58:53;;;;;;;0.20;0.20;;;9.50;99.90;;;;;;5092990;28;20044;-76
2022/11/10 05:01:22;;;;;;;0.00;0.00;;;9.50;99.90;;;;;;5100018;28;20054;-76
2022/11/10 05:03:49;;;;;;;0.10;0.10;;;9.50;99.90;;;;;;5093007;28;20052;-76
2022/11/10 05:06:15;;;;;;;0.40;0.40;;;9.60;99.90;;;;;;5076221;28;20480;-76
2022/11/10 05:08:42;;;;;;;0.60;0.40;;;9.60;99.90;;;;;;5075995;28;20048;-77
2022/11/10 05:11:08;;;;;;;0.60;0.25;;;9.60;99.90;;;;;;5075982;28;20094;-77
2022/11/10 05:13:34;;;;;;;0.00;0.00;;;9.60;99.90;;;;;;5076505;28;20052;-77
2022/11/10 05:16:00;;;;;;;0.10;0.10;;;9.70;99.90;;;;;;5092887;28;20048;-77
2022/11/10 05:18:26;;;;;;;21.58;1.00;;;9.70;99.90;;;;;;5092409;28;20114;-77
2022/11/10 05:20:52;;;;;;;0.60;0.60;;;9.60;99.90;;;;;;5092830;28;20036;-78
2022/11/10 05:23:36;;;;;;;1.55;0.80;;;9.60;99.90;;;;;;5092394;28;20056;-78
2022/11/10 05:26:05;;;;;;;0.00;0.00;;;9.70;99.90;;;;;;5092816;28;20519;-78
2022/11/10 05:28:31;;;;;;;0.17;0.17;;;9.70;99.90;;;;;;5093178;28;20054;-81
2022/11/10 05:30:57;;;;;;;0.20;0.20;;;9.70;99.90;;;;;;5092340;28;20051;-78
2022/11/10 05:33:22;;;;;;;0.22;0.20;;;9.70;99.90;;;;;;5092504;28;20140;-78
2022/11/10 05:35:49;;;;;;;0.50;0.28;;;9.70;99.90;;;;;;5076398;28;20036;-78
2022/11/10 05:38:15;;;;;;;0.00;0.00;;;9.70;99.90;;;;;;5092741;28;20097;-78
2022/11/10 05:40:40;;;;;;;0.00;0.00;;;9.70;99.90;;;;;;5096509;28;20063;-78
2022/11/10 05:43:06;;;;;;;0.00;0.00;;;9.70;99.90;;;;;;5096855;28;20036;-76
2022/11/10 05:45:32;;;;;;;2.50;0.65;;;9.70;99.90;;;;;;5079606;28;20088;-76
2022/11/10 05:47:58;;;;;;;2.25;0.65;;;9.70;99.90;;;;;;5079806;28;20044;-76
2022/11/10 05:50:24;;;;;;;0.13;0.10;;;9.70;99.90;;;;;;5097498;28;20048;-76
2022/11/10 05:52:53;;;;;;;0.10;0.03;;;9.70;99.90;;;;;;5096590;28;20059;-76
2022/11/10 05:55:24;;;;;;;2.40;1.17;;;9.70;99.90;;;;;;5096541;28;20056;-76
2022/11/10 05:57:52;;;;;;;0.93;0.57;;;9.70;99.90;;;;;;5096862;28;20077;-76
2022/11/10 06:00:20;;;;;;;0.32;0.32;;;9.80;99.90;;;;;;5096020;28;20048;-76
2022/11/10 06:02:59;;;;;;;0.73;0.73;;;9.70;99.90;;;;;;5096200;28;20063;-76
2022/11/10 06:05:25;;;;;;;0.00;0.00;;;9.70;99.90;;;;;;5096949;28;20044;-76
2022/11/10 06:07:51;;;;;;;0.00;0.00;;;9.70;99.90;;;;;;5079581;28;20489;-76
2022/11/10 06:10:17;;;;;;;0.00;0.00;;;9.70;99.90;;;;;;5096271;28;20513;-76
2022/11/10 06:12:43;;;;;;;0.38;0.32;;;9.70;99.90;;;;;;5095946;28;20048;-77
2022/11/10 06:15:10;;;;;;;0.43;0.43;;;9.80;99.90;;;;;;5096074;28;20048;-77
2022/11/10 06:17:39;;;;;;;0.00;0.00;;;9.70;99.90;;;;;;5096370;28;20048;-77
2022/11/10 06:20:05;;;;;;;0.65;0.57;;;9.70;99.90;;;;;;5078778;28;20043;-77
2022/11/10 06:22:31;;;;;;;0.10;0.05;;;9.70;99.90;;;;;;5078997;28;20082;-77
2022/11/10 06:24:56;;;;;;;7.10;1.23;;;9.70;99.90;;;;;;5079327;28;20051;-77
2022/11/10 06:27:22;;;;;;;0.10;0.00;;;9.70;99.90;;;;;;5079259;28;20391;-77
2022/11/10 06:29:48;;;;;;;0.00;0.00;;;9.80;99.90;;;;;;5095139;28;20538;-77
2022/11/10 06:32:13;;;;;;;0.28;0.25;;;9.80;99.90;;;;;;5078847;28;20064;-77
2022/11/10 06:34:39;;;;;;;0.00;0.00;;;9.70;99.90;;;;;;5094901;28;20113;-78
2022/11/10 06:37:05;;;;;;;0.47;0.47;;;9.70;99.90;;;;;;5068683;28;20400;-76
2022/11/10 06:39:30;;;;;;;0.00;0.00;;;9.70;99.90;;;;;;5058682;28;20435;-76
2022/11/10 06:41:56;;;;;;;0.10;0.10;;;9.70;99.90;;;;;;5058741;28;20543;-77
2022/11/10 06:44:22;;;;;;;0.35;0.25;;;9.70;99.90;;;;;;5075103;28;20059;-76
2022/11/10 06:46:47;;;;;;;1.02;0.60;;;9.70;99.90;;;;;;5075483;28;20136;-76
2022/11/10 06:49:13;;;;;;;0.73;0.10;;;9.70;99.90;;;;;;5058404;28;20044;-76
2022/11/10 06:51:39;;;;;;;0.05;0.05;;;9.70;99.90;;;;;;5057750;28;20106;-76
2022/11/10 06:54:04;;;;;;;0.00;0.00;;;9.70;99.90;;;;;;5058619;28;20044;-76
2022/11/10 06:56:30;;;;;;;0.15;0.15;;;9.70;99.90;;;;;;5075067;28;20469;-76
2022/11/10 06:58:56;;;;;;;0.00;0.00;;;9.70;99.90;;;;;;5058077;28;20053;-76
2022/11/10 07:01:25;;;;;;;3.72;0.77;;;9.70;99.90;;;;;;5074942;28;20041;-76
2022/11/10 07:03:52;;;;;;;0.20;0.20;;;9.70;99.90;;;;;;5074866;28;20052;-76
2022/11/10 07:06:18;;;;;;;0.95;0.30;;;9.70;99.90;;;;;;5058398;28;20044;-77
2022/11/10 07:08:44;;;;;;;0.13;0.05;;;9.70;99.90;;;;;;5074621;28;20056;-76
2022/11/10 07:11:10;;;;;;;0.32;0.32;;;9.80;99.90;;;;;;5057724;28;20044;-77
2022/11/10 07:13:35;;;;;;;1.75;0.75;;;9.70;99.90;;;;;;5057855;28;20480;-76
2022/11/10 07:16:06;;;;;;;0.43;0.43;;;9.70;99.90;;;;;;5074742;28;20044;-76
2022/11/10 07:18:32;;;;;;;0.00;0.00;;;9.70;99.90;;;;;;5074078;28;20056;-76
2022/11/10 07:21:00;;;;;;;0.00;0.00;;;9.70;99.90;;;;;;5074288;28;20037;-76
2022/11/10 07:23:26;;;;;;;0.00;0.00;;;9.70;99.90;;;;;;5074700;28;20091;-76
2022/11/10 07:25:52;;;;;;;0.10;0.00;;;9.80;99.90;;;;;;5057454;28;20461;-77
2022/11/10 07:28:17;;;;;;;8.88;2.10;;;9.80;99.90;;;;;;5074186;28;20052;-76
2022/11/10 07:30:44;;;;;;;3.60;1.60;;;9.90;99.90;;;;;;5057889;28;20538;-76
2022/11/10 07:33:14;;;;;;;0.45;0.43;;;9.90;99.90;;;;;;5057364;28;20044;-76
2022/11/10 07:35:40;;;;;;;0.00;0.00;;;10.00;99.90;;;;;;5057859;28;20114;-76
2022/11/10 07:38:11;;;;;;;0.22;0.22;;;10.10;99.90;;;;;;5074194;28;20095;-78
2022/11/10 07:40:37;;;;;;;0.00;0.00;;;10.10;99.90;;;;;;5057704;28;20080;-79
2022/11/10 07:43:03;;;;;;;0.05;0.00;;;10.20;99.90;;;;;;5074289;28;20045;-79
2022/11/10 07:45:30;;;;;;;0.00;0.00;;;10.20;99.90;;;;;;5057434;28;20063;-79
2022/11/10 07:48:00;;;;;;;0.00;0.00;;;10.30;99.90;;;;;;5057484;28;20044;-80
2022/11/10 07:50:27;;;;;;;0.00;0.00;;;10.40;99.90;;;;;;5057280;28;20056;-79
2022/11/10 07:53:00;;;;;;;1.38;0.55;;;10.40;99.90;;;;;;5057291;28;20059;-79
2022/11/10 07:55:26;;;;;;;0.22;0.20;;;10.40;99.90;;;;;;5074601;28;20496;-79
2022/11/10 07:57:57;;;;;;;0.45;0.45;;;10.40;99.90;;;;;;5073984;28;20049;-78
2022/11/10 08:00:22;;;;;;;0.85;0.38;;;10.40;99.90;;;;;;5073743;28;20048;-79
2022/11/10 08:02:48;;;;;;;0.10;0.05;;;10.40;99.90;;;;;;5072237;28;20093;-78
2022/11/10 08:05:14;;;;;;;2.83;0.70;;;10.50;99.90;;;;;;5057315;28;20052;-79
2022/11/10 08:07:39;;;;;;;0.20;0.20;;;10.50;99.90;;;;;;5056853;28;20053;-79
2022/11/10 08:10:06;;;;;;;0.20;0.20;;;10.60;99.90;;;;;;5073705;28;20054;-81
2022/11/10 08:12:31;;;;;;;0.00;0.00;;;10.60;99.90;;;;;;5074210;28;20134;-79
2022/11/10 08:14:57;;;;;;;0.00;0.00;;;10.60;99.90;;;;;;5057010;28;20129;-79
2022/11/10 08:17:23;;;;;;;0.05;0.05;;;10.60;99.90;;;;;;5057003;28;20044;-79
2022/11/10 08:19:48;;;;;;;0.00;0.00;;;10.60;99.90;;;;;;5056901;28;20461;-79
2022/11/10 08:22:14;;;;;;;3.05;0.80;;;10.70;99.90;;;;;;5073398;28;20051;-81
2022/11/10 08:24:39;;;;;;;0.08;0.00;;;10.80;99.90;;;;;;5056793;28;20055;-81
2022/11/10 08:27:05;;;;;;;0.03;0.00;;;10.70;99.90;;;;;;5073942;28;20125;-77
2022/11/10 08:29:31;;;;;;;0.03;0.03;;;10.80;99.90;;;;;;5073307;28;20048;-77
2022/11/10 08:31:56;;;;;;;1.30;1.02;;;10.90;99.90;;;;;;5056516;28;20110;-77
2022/11/10 08:34:22;;;;;;;0.20;0.20;;;11.30;99.90;;;;;;5060085;28;20036;-77
2022/11/10 08:36:51;;;;;;;0.20;0.20;;;11.80;99.90;;;;;;5076650;28;20173;-77
2022/11/10 08:39:17;;;;;;;0.00;0.00;;;12.70;99.90;;;;;;5093525;28;20040;-77
2022/11/10 08:41:43;;;;;;;0.20;0.20;;;13.60;99.90;;;;;;5076112;28;20437;-77
2022/11/10 08:44:08;;;;;;;0.00;0.00;;;14.50;99.90;;;;;;5076758;28;20495;-77
2022/11/10 08:46:34;;;;;;;0.38;0.00;;;15.10;99.90;;;;;;5093198;28;20040;-77
2022/11/10 08:49:00;;;;;;;0.98;0.80;;;15.70;99.90;;;;;;5076398;28;20174;-78
2022/11/10 08:51:25;;;;;;;0.45;0.25;;;16.30;99.90;;;;;;5075962;28;20070;-78
2022/11/10 08:53:51;;;;;;;0.20;0.00;;;16.80;99.90;;;;;;5076037;28;20055;-78
2022/11/10 08:56:17;;;;;;;0.35;0.30;;;17.10;99.90;;;;;;5093233;28;20040;-78
2022/11/10 08:58:42;;;;;;;0.00;0.00;;;17.40;99.90;;;;;;5092844;28;20051;-77
2022/11/10 09:01:10;;;;;;;0.00;0.00;;;17.60;99.90;;;;;;5093146;28;20082;-77
2022/11/10 09:03:36;;;;;;;0.35;0.30;;;17.90;99.90;;;;;;5092656;28;20055;-78
2022/11/10 09:06:02;;;;;;;0.00;0.00;;;17.90;99.90;;;;;;5093004;28;20051;-77
2022/11/10 09:08:32;;;;;;;0.10;0.10;;;17.90;99.90;;;;;;5076904;28;20047;-77
2022/11/10 09:11:02;;;;;;;0.38;0.38;;;18.00;99.90;;;;;;5093138;28;20430;-78
2022/11/10 09:13:28;;;;;;;0.88;0.52;;;17.80;99.90;;;;;;5076357;28;20060;-77
2022/11/10 09:15:54;;;;;;;0.00;0.00;;;17.90;99.90;;;;;;5076139;28;20126;-77
2022/11/10 09:18:20;;;;;;;0.75;0.45;;;17.80;99.90;;;;;;5075864;28;20480;-77
2022/11/10 09:20:45;;;;;;;0.00;0.00;;;17.80;99.90;;;;;;5092521;28;20490;-77
2022/11/10 09:23:17;;;;;;;0.00;0.00;;;18.00;99.90;;;;;;5093480;28;20058;-78
2022/11/10 09:25:49;;;;;;;0.10;0.10;;;17.90;99.90;;;;;;5092677;28;20045;-77
2022/11/10 09:28:15;;;;;;;0.05;0.05;;;18.20;99.90;;;;;;5092922;28;20040;-78
2022/11/10 09:30:44;;;;;;;0.15;0.10;;;18.30;99.90;;;;;;5092628;28;20040;-78
2022/11/10 09:33:09;;;;;;;0.08;0.08;;;18.50;99.90;;;;;;5075704;28;20048;-77
2022/11/10 09:35:35;;;;;;;0.80;0.65;;;18.60;99.90;;;;;;5092715;28;20044;-77
2022/11/10 09:38:01;;;;;;;0.10;0.00;;;19.10;99.90;;;;;;5075788;28;20063;-77
2022/11/10 09:41:03;;;;;;;0.00;0.00;;;19.40;99.90;;;;;;5091865;28;20084;-77
2022/11/10 09:43:40;;;;;;;0.52;0.22;;;19.70;99.90;;;;;;5090009;28;20056;-78
2022/11/10 09:46:25;;;;;;;0.00;0.00;;;19.80;99.90;;;;;;5076045;28;20052;-77
2022/11/10 09:48:57;;;;;;;1.17;0.38;;;20.20;99.90;;;;;;5076181;28;20044;-78
2022/11/10 09:51:31;;;;;;;0.00;0.00;;;20.30;99.90;;;;;;5075803;28;20052;-78
2022/11/10 09:54:01;;;;;;;0.25;0.00;;;20.30;99.90;;;;;;5087420;28;20044;-79
2022/11/10 09:56:35;;;;;;;1.85;1.10;;;20.40;99.90;;;;;;5090341;28;20063;-78
2022/11/10 09:59:14;;;;;;;0.35;0.35;;;20.40;99.90;;;;;;5092171;28;20426;-78
2022/11/10 10:01:48;;;;;;;0.20;0.20;;;20.40;99.90;;;;;;5071917;28;20070;-79
2022/11/10 10:04:33;;;;;;;0.00;0.00;;;20.20;99.90;;;;;;5055642;28;20052;-79
2022/11/10 10:07:15;;;;;;;0.20;0.20;;;20.00;99.90;;;;;;5072048;28;20399;-78
2022/11/10 10:09:49;;;;;;;0.38;0.38;;;20.00;99.90;;;;;;5055623;28;20045;-78
2022/11/10 10:12:46;;;;;;;0.00;0.00;;;19.90;99.90;;;;;;5078741;28;20087;-78
2022/11/10 10:15:36;;;;;;;0.00;0.00;;;19.80;99.90;;;;;;5075353;28;20424;-78
2022/11/10 10:18:08;;;;;;;0.00;0.00;;;19.70;99.90;;;;;;5075254;28;20052;-78
2022/11/10 10:21:08;;;;;;;0.80;0.55;;;19.80;99.90;;;;;;5075374;28;20055;-78
2022/11/10 10:23:36;;;;;;;0.82;0.30;;;19.70;99.90;;;;;;5092774;28;20445;-78
2022/11/10 10:26:02;;;;;;;0.05;0.05;;;19.40;99.90;;;;;;5077814;28;20069;-78
2022/11/10 10:28:34;;;;;;;0.95;0.52;;;18.90;99.90;;;;;;5095929;28;20076;-78
2022/11/10 10:31:19;;;;;;;0.00;0.00;;;18.80;99.90;;;;;;5078986;28;20098;-77
2022/11/10 10:33:46;;;;;;;0.00;0.00;;;18.60;99.90;;;;;;5095434;28;20070;-78
2022/11/10 10:36:18;;;;;;;0.45;0.38;;;18.40;99.90;;;;;;5078696;28;20518;-77
2022/11/10 10:38:47;;;;;;;0.28;0.28;;;18.20;99.90;;;;;;5095897;28;20127;-78
2022/11/10 10:41:20;;;;;;;0.15;0.15;;;17.90;99.90;;;;;;5078730;28;20051;-78
2022/11/10 10:43:48;;;;;;;0.13;0.13;;;17.70;99.90;;;;;;5095545;28;20172;-78
2022/11/10 10:46:15;;;;;;;0.10;0.00;;;17.60;99.90;;;;;;5078572;28;20097;-77
2022/11/10 10:48:41;;;;;;;0.28;0.10;;;17.40;99.90;;;;;;5073079;28;20032;-78
2022/11/10 10:51:07;;;;;;;1.90;0.32;;;17.30;99.90;;;;;;5074925;28;20053;-79
2022/11/10 10:53:45;;;;;;;0.00;0.00;;;17.20;99.90;;;;;;5092458;28;20040;-78
2022/11/10 10:56:19;;;;;;;0.15;0.10;;;16.90;99.90;;;;;;5068885;28;20060;-78
2022/11/10 10:58:55;;;;;;;0.28;0.28;;;16.80;99.90;;;;;;5074714;28;20086;-77
2022/11/10 11:01:30;;;;;;;0.00;0.00;;;16.60;99.90;;;;;;5064653;28;20053;-78
2022/11/10 11:03:57;;;;;;;;;;;16.50;99.90;;;;;;5078761;28;20109;-78
2022/11/10 11:06:26;;;;;;;0.15;0.08;;;16.50;99.90;;;;;;5078359;28;20021;-78
2022/11/10 11:09:07;;;;;;;6.55;0.80;;;16.50;99.90;;;;;;5078255;28;20055;-79
2022/11/10 11:11:39;;;;;;;2.72;0.75;;;16.20;99.90;;;;;;5078365;28;20095;-80
2022/11/10 11:14:15;;;;;;;0.00;0.00;;;16.10;99.90;;;;;;5095413;28;20040;-79
2022/11/10 11:16:50;;;;;;;0.03;0.00;;;16.00;99.90;;;;;;5078143;28;20110;-79
2022/11/10 11:19:17;;;;;;;0.20;0.08;;;16.20;99.90;;;;;;5077807;28;20507;-79
2022/11/10 11:22:03;;;;;;;10.05;1.02;;;16.20;99.90;;;;;;5078320;28;20090;-79
2022/11/10 11:24:32;;;;;;;0.10;0.10;;;16.30;99.90;;;;;;5078116;28;20066;-79
2022/11/10 11:27:20;;;;;;;0.00;0.00;;;16.10;99.90;;;;;;5077778;28;20483;-79
2022/11/10 11:29:51;;;;;;;0.00;0.00;;;16.10;99.90;;;;;;5036873;28;20440;-79
2022/11/10 11:32:26;;;;;;;0.00;0.00;;;16.10;99.90;;;;;;5036466;28;20053;-79
2022/11/10 11:34:54;;;;;;;0.00;0.00;;;15.90;99.90;;;;;;5037483;28;20048;-79
2022/11/10 11:37:23;;;;;;;0.28;0.00;;;15.70;99.90;;;;;;5035196;28;20139;-79
2022/11/10 11:40:18;;;;;;;0.38;0.38;;;15.60;99.90;;;;;;5036452;28;20131;-79
2022/11/10 11:43:02;;;;;;;0.00;0.00;;;15.50;99.90;;;;;;5036487;28;20140;-79
2022/11/10 11:46:05;;;;;;;2.08;0.65;;;15.30;99.90;;;;;;5020201;28;20140;-79
2022/11/10 11:48:51;;;;;;;0.10;0.10;;;15.20;99.90;;;;;;5036562;28;20084;-79
2022/11/10 11:52:01;;;;;;;0.20;0.15;;;15.10;99.90;;;;;;5020041;28;20052;-79
2022/11/10 11:55:06;;;;;;;4.20;1.10;;;15.00;99.90;;;;;;4923312;29;20065;-79
2022/11/10 11:57:51;;;;;;;0.30;0.30;;;15.00;99.90;;;;;;4863473;29;20071;-79
2022/11/10 12:00:17;;;;;;;;;;;15.00;99.90;;;;;;4864134;29;20061;-78
2022/11/10 12:03:04;;;;;;;0.15;0.05;;;15.10;99.90;;;;;;4863277;29;19924;-78
2022/11/10 12:05:49;;;;;;;5.63;0.63;;;15.10;99.90;;;;;;4863487;29;20069;-78
2022/11/10 12:08:41;;;;;;;3.40;0.60;;;15.10;99.90;;;;;;4935346;29;20059;-80
2022/11/10 12:11:31;;;;;;;0.30;0.30;;;15.20;99.90;;;;;;4904245;29;20454;-82
2022/11/10 12:14:37;;;;;;;1.45;0.45;;;15.20;99.90;;;;;;4903724;29;20488;-79
2022/11/10 12:17:02;;;;;;;;;;;15.10;99.90;;;;;;4879639;29;20478;-79
2022/11/10 12:19:50;;;;;;;0.00;0.00;;;15.10;99.90;;;;;;4878596;29;19945;-79
2022/11/10 12:22:31;;;;;;;0.20;0.20;;;15.10;99.90;;;;;;4863694;29;20235;-78
2022/11/10 12:25:06;;;;;;;0.00;0.00;;;15.00;99.90;;;;;;4875892;29;20067;-78
2022/11/10 12:27:39;;;;;;;3.05;0.95;;;15.10;99.90;;;;;;4878611;29;20056;-78
2022/11/10 12:30:12;;;;;;;5.05;0.80;;;15.00;99.90;;;;;;4943892;28;20058;-78
2022/11/10 12:32:51;;;;;;;0.08;0.08;;;15.10;99.90;;;;;;5013194;28;20100;-77
2022/11/10 12:35:27;;;;;;;8.40;0.98;;;15.10;99.90;;;;;;4996275;28;20481;-77
2022/11/10 12:37:57;;;;;;;0.10;0.10;;;15.00;99.90;;;;;;4996336;28;20521;-77
2022/11/10 12:40:39;;;;;;;0.00;0.00;;;15.00;99.90;;;;;;4996078;28;20149;-78
2022/11/10 12:43:25;;;;;;;0.00;0.00;;;14.90;99.90;;;;;;4995634;28;20469;-78
2022/11/10 12:45:55;;;;;;;0.20;0.17;;;14.90;99.90;;;;;;4996027;28;20144;-78
2022/11/10 12:48:22;;;;;;;0.00;0.00;;;14.90;99.90;;;;;;4995863;28;20112;-78
2022/11/10 12:50:57;;;;;;;0.08;0.05;;;14.80;99.90;;;;;;4979843;28;20049;-78
2022/11/10 12:53:31;;;;;;;0.17;0.17;;;14.90;99.90;;;;;;5031854;28;20057;-78
2022/11/10 12:56:05;;;;;;;0.03;0.03;;;14.80;99.90;;;;;;5056657;28;20056;-78
2022/11/10 12:58:31;;;;;;;1.40;0.77;;;14.80;99.90;;;;;;5056136;28;20135;-78
2022/11/10 13:01:01;;;;;;;0.00;0.00;;;14.80;99.90;;;;;;5056274;28;20135;-78
2022/11/10 13:03:28;;;;;;;0.50;0.50;;;14.80;99.90;;;;;;5055495;28;20048;-78
2022/11/10 13:05:56;;;;;;;0.77;0.20;;;14.80;99.90;;;;;;5055996;28;20059;-78
2022/11/10 13:08:48;;;;;;;0.10;0.10;;;14.80;99.90;;;;;;5055961;28;20057;-78
2022/11/10 13:11:14;;;;;;;0.00;0.00;;;14.90;99.90;;;;;;5035419;28;20064;-78
2022/11/10 13:13:46;;;;;;;0.28;0.28;;;14.90;99.90;;;;;;5035189;28;20443;-78
2022/11/10 13:16:33;;;;;;;0.13;0.13;;;14.90;99.90;;;;;;5034951;28;20061;-77